Time;durP1;ratioP1;P1;durP2;ratioP2;P2;SDS_P1;SDS_P2;PMS_P1;PMS_P2;Temp;Humidity;BMP_temperature;BMP_pressure;BME280_temperature;BME280_humidity;BME280_pressure;Samples;Min_cycle;Max_cycle;Signal;HPM_P1;HPM_P2
2021/03/02 00:01:44;;;;;;;67.78;34.28;;;;;;;;;;4942541;29;20059;-93
2021/03/02 00:04:45;;;;;;;73.72;34.90;;;;;;;;;;4957702;29;20062;-94
2021/03/02 00:07:40;;;;;;;64.82;31.85;;;;;;;;;;4934011;28;20045;-93
2021/03/02 00:10:24;;;;;;;69.40;37.60;;;;;;;;;;4954204;28;20057;-93
2021/03/02 00:12:58;;;;;;;71.68;36.30;;;;;;;;;;4963185;28;20067;-93
2021/03/02 00:15:36;;;;;;;69.10;35.90;;;;;;;;;;4943721;28;20055;-93
2021/03/02 00:18:25;;;;;;;76.63;34.60;;;;;;;;;;4936255;28;20054;-93
2021/03/02 00:21:02;;;;;;;76.00;38.70;;;;;;;;;;4933011;28;20058;-91
2021/03/02 00:23:53;;;;;;;80.38;37.03;;;;;;;;;;4951538;29;20061;-93
2021/03/02 00:26:37;;;;;;;82.85;37.58;;;;;;;;;;4937075;28;20057;-93
2021/03/02 00:29:22;;;;;;;85.63;38.78;;;;;;;;;;4938476;28;20044;-92
2021/03/02 00:31:53;;;;;;;78.35;41.55;;;;;;;;;;4932831;28;20055;-92
2021/03/02 00:34:24;;;;;;;73.25;36.80;;;;;;;;;;4934713;29;20216;-93
2021/03/02 00:36:55;;;;;;;77.63;40.35;;;;;;;;;;4930954;29;20055;-93
2021/03/02 00:39:26;;;;;;;73.80;38.87;;;;;;;;;;4940238;29;20054;-92
2021/03/02 00:41:58;;;;;;;85.13;40.30;;;;;;;;;;4957950;28;20070;-93
2021/03/02 00:44:40;;;;;;;81.28;36.50;;;;;;;;;;4922147;29;20038;-91
2021/03/02 00:47:09;;;;;;;86.43;37.97;;;;;;;;;;4953206;28;20055;-91
2021/03/02 00:49:38;;;;;;;77.38;41.00;;;;;;;;;;4942595;28;20402;-92
2021/03/02 00:52:22;;;;;;;74.65;35.20;;;;;;;;;;4924237;29;20051;-92
2021/03/02 00:54:51;;;;;;;81.88;38.90;;;;;;;;;;4938468;29;20057;-93
2021/03/02 00:57:23;;;;;;;88.00;43.90;;;;;;;;;;4924770;29;20370;-92
2021/03/02 00:59:55;;;;;;;72.93;38.92;;;;;;;;;;4949313;29;20053;-93
2021/03/02 01:02:24;;;;;;;76.53;42.65;;;;;;;;;;4918690;29;20074;-92
2021/03/02 01:04:56;;;;;;;98.35;39.97;;;;;;;;;;4923621;29;20059;-94
2021/03/02 01:07:44;;;;;;;92.30;43.63;;;;;;;;;;4940500;29;20047;-94
2021/03/02 01:10:26;;;;;;;84.35;41.80;;;;;;;;;;4940031;29;20061;-95
2021/03/02 01:13:13;;;;;;;76.78;38.72;;;;;;;;;;4938960;29;20146;-93
2021/03/02 01:15:55;;;;;;;95.38;41.72;;;;;;;;;;4937500;29;20047;-93
2021/03/02 01:18:39;;;;;;;84.30;38.63;;;;;;;;;;4935988;29;20051;-93
2021/03/02 01:21:23;;;;;;;76.80;38.40;;;;;;;;;;4911421;29;20058;-94
2021/03/02 01:24:07;;;;;;;91.45;42.72;;;;;;;;;;4908336;29;20051;-93
2021/03/02 01:26:49;;;;;;;91.40;40.80;;;;;;;;;;4921971;29;20044;-94
2021/03/02 01:29:33;;;;;;;88.07;40.85;;;;;;;;;;4952012;29;20058;-95
2021/03/02 01:32:18;;;;;;;79.68;39.72;;;;;;;;;;4939850;29;20208;-90
2021/03/02 01:35:01;;;;;;;82.60;41.75;;;;;;;;;;4926295;29;20051;-91
2021/03/02 01:37:31;;;;;;;87.57;43.67;;;;;;;;;;4950204;29;20658;-93
2021/03/02 01:40:18;;;;;;;107.40;46.88;;;6.10;99.90;;;;;;4932616;29;20286;-93
2021/03/02 01:43:01;;;;;;;94.53;44.92;;;;;;;;;;4904194;29;20067;-91
2021/03/02 01:45:45;;;;;;;93.82;42.00;;;;;;;;;;4930588;29;20095;-91
2021/03/02 01:48:14;;;;;;;78.65;43.47;;;;;;;;;;4924291;29;20058;-92
2021/03/02 01:50:59;;;;;;;100.63;45.17;;;;;;;;;;4912746;29;20415;-92
2021/03/02 01:53:43;;;;;;;85.38;44.30;;;;;;;;;;4896775;29;20120;-91
2021/03/02 01:56:32;;;;;;;87.78;41.45;;;;;;;;;;4934284;29;20055;-93
2021/03/02 01:59:12;;;;;;;77.90;44.05;;;6.00;99.90;;;;;;4919390;29;20051;-90
2021/03/02 02:01:57;;;;;;;93.75;40.33;;;;;;;;;;4933369;29;20156;-92
2021/03/02 02:04:42;;;;;;;101.60;45.35;;;;;;;;;;4903819;29;20048;-91
2021/03/02 02:07:14;;;;;;;94.22;46.38;;;;;;;;;;4918135;29;20056;-93
2021/03/02 02:10:17;;;;;;;83.55;46.65;;;6.10;99.90;;;;;;4928802;29;20056;-92
2021/03/02 02:13:07;;;;;;;103.82;44.55;;;;;;;;;;4913379;29;20056;-93
2021/03/02 02:15:39;;;;;;;91.07;45.55;;;;;;;;;;4919315;29;20060;-93
2021/03/02 02:18:10;;;;;;;104.28;45.75;;;;;;;;;;4903773;29;20048;-93
2021/03/02 02:20:48;;;;;;;81.32;45.65;;;;;;;;;;4900079;29;20040;-93
2021/03/02 02:23:49;;;;;;;93.57;45.33;;;;;;;;;;4917019;29;20065;-92
2021/03/02 02:26:44;;;;;;;91.63;43.75;;;;;;;;;;4910433;29;20044;-95
2021/03/02 02:29:19;;;;;;;99.25;44.95;;;;;;;;;;4912727;29;20141;-91
2021/03/02 02:32:02;;;;;;;90.65;42.58;;;;;;;;;;4898935;29;20430;-93
2021/03/02 02:34:45;;;;;;;95.05;47.80;;;;;;;;;;4906784;29;20055;-92
2021/03/02 02:37:17;;;;;;;100.68;46.78;;;;;;;;;;4920652;29;20551;-94
2021/03/02 02:39:47;;;;;;;111.20;53.53;;;;;;;;;;4928791;29;20051;-93
2021/03/02 02:42:29;;;;;;;94.25;45.22;;;;;;;;;;4926529;29;20047;-91
2021/03/02 02:44:59;;;;;;;99.57;45.63;;;;;;;;;;4940686;29;20039;-93
2021/03/02 02:47:34;;;;;;;105.75;46.72;;;;;;;;;;4936486;29;20047;-93
2021/03/02 02:50:04;;;;;;;106.82;44.00;;;6.10;99.90;;;;;;4934602;29;20066;-92
2021/03/02 02:52:47;;;;;;;98.22;49.63;;;;;;;;;;4937504;29;20061;-93
2021/03/02 02:55:51;;;;;;;115.03;49.65;;;6.10;99.90;;;;;;4930001;29;20056;-92
2021/03/02 02:58:27;;;;;;;101.85;46.20;;;;;;;;;;4932696;29;20051;-93
2021/03/02 03:01:11;;;;;;;120.63;49.60;;;;;;;;;;4910080;29;20044;-93
2021/03/02 03:03:45;;;;;;;100.93;51.65;;;;;;;;;;4951298;29;20051;-93
2021/03/02 03:06:17;;;;;;;95.90;47.03;;;;;;;;;;4951845;29;20057;-93
2021/03/02 03:08:50;;;;;;;128.80;52.33;;;5.90;99.90;;;;;;4951241;29;20063;-92
2021/03/02 03:11:25;;;;;;;104.50;47.60;;;6.10;99.90;;;;;;4931977;29;20055;-92
2021/03/02 03:14:10;;;;;;;101.15;52.13;;;;;;;;;;4937215;29;20051;-94
2021/03/02 03:16:54;;;;;;;104.30;49.55;;;;;;;;;;4921923;29;20273;-91
2021/03/02 03:19:38;;;;;;;102.80;49.03;;;;;;;;;;4919057;29;20058;-94
2021/03/02 03:22:08;;;;;;;103.90;48.42;;;;;;;;;;4948375;29;20059;-94
2021/03/02 03:24:55;;;;;;;105.57;50.13;;;;;;;;;;4939181;29;20047;-92
2021/03/02 03:27:51;;;;;;;98.68;45.45;;;6.10;99.90;;;;;;4923918;29;20046;-94
2021/03/02 03:30:25;;;;;;;97.63;47.85;;;;;;;;;;4921090;29;20038;-94
2021/03/02 03:32:58;;;;;;;97.55;47.63;;;;;;;;;;4951526;29;20065;-93
2021/03/02 03:35:42;;;;;;;95.95;45.97;;;;;;;;;;4918998;29;20055;-93
2021/03/02 03:38:25;;;;;;;112.28;48.53;;;;;;;;;;4915741;29;20054;-94
2021/03/02 03:40:55;;;;;;;96.25;44.97;;;;;;;;;;4938104;29;20051;-94
2021/03/02 03:43:40;;;;;;;118.13;47.53;;;;;;;;;;4953280;28;20059;-93
2021/03/02 03:46:30;;;;;;;97.90;49.47;;;;;;;;;;4956475;29;20047;-92
2021/03/02 03:49:13;;;;;;;98.63;48.78;;;;;;;;;;4907213;29;20411;-93
2021/03/02 03:51:58;;;;;;;95.75;46.90;;;;;;;;;;4931043;29;20155;-91
2021/03/02 03:54:31;;;;;;;109.03;50.08;;;;;;;;;;4911792;29;20058;-92
2021/03/02 03:57:14;;;;;;;95.45;45.47;;;;;;;;;;4949706;29;20051;-92
2021/03/02 03:59:47;;;;;;;110.07;52.65;;;6.10;99.90;;;;;;4949752;29;20643;-93
2021/03/02 04:02:19;;;;;;;93.25;48.08;;;;;;;;;;4951088;29;20063;-93
2021/03/02 04:05:04;;;;;;;95.05;45.78;;;6.00;99.90;;;;;;4948654;29;20431;-92
2021/03/02 04:07:36;;;;;;;114.50;53.40;;;5.90;99.90;;;;;;4904145;29;20043;-92
2021/03/02 04:10:18;;;;;;;101.95;49.03;;;;;;;;;;4921202;29;20047;-93
2021/03/02 04:13:09;;;;;;;114.80;53.53;;;;;;;;;;4946885;29;20053;-92
2021/03/02 04:15:53;;;;;;;110.25;48.33;;;;;;;;;;4947000;29;20043;-93
2021/03/02 04:18:35;;;;;;;111.38;48.72;;;;;;;;;;4937376;29;20055;-92
2021/03/02 04:21:19;;;;;;;102.18;46.90;;;;;;;;;;4922609;29;20043;-93
2021/03/02 04:24:03;;;;;;;104.47;46.20;;;;;;;;;;4945583;29;20066;-93
2021/03/02 04:26:48;;;;;;;98.32;47.67;;;;;;;;;;4915772;29;20045;-93
2021/03/02 04:29:35;;;;;;;117.35;51.67;;;;;;;;;;4936477;29;20059;-94
2021/03/02 04:32:06;;;;;;;115.68;49.35;;;;;;;;;;4937796;23;20055;-94
2021/03/02 04:34:51;;;;;;;102.15;51.30;;;;;;;;;;4839336;29;20053;-92
2021/03/02 04:37:33;;;;;;;100.63;47.22;;;;;;;;;;4890883;29;20063;-93
2021/03/02 04:40:15;;;;;;;119.97;51.83;;;;;;;;;;4869773;29;20045;-93
2021/03/02 04:42:59;;;;;;;102.90;46.38;;;;;;;;;;4899254;29;20072;-92
2021/03/02 04:45:40;;;;;;;108.97;50.67;;;;;;;;;;4893038;29;20342;-93
2021/03/02 04:48:11;;;;;;;100.82;50.75;;;;;;;;;;4895540;29;20393;-92
2021/03/02 04:50:55;;;;;;;103.53;42.67;;;;;;;;;;4862852;29;20059;-94
2021/03/02 04:53:28;;;;;;;105.00;45.83;;;;;;;;;;4894979;29;20053;-93
2021/03/02 04:56:06;;;;;;;112.15;49.15;;;;;;;;;;4873156;29;20056;-92
2021/03/02 04:58:50;;;;;;;107.00;46.33;;;;;;;;;;4895363;29;20053;-92
2021/03/02 05:01:39;;;;;;;111.63;48.20;;;5.90;99.90;;;;;;4867594;29;20052;-92
2021/03/02 05:04:23;;;;;;;124.70;50.25;;;;;;;;;;4889033;29;20485;-92
2021/03/02 05:06:54;;;;;;;119.10;51.70;;;;;;;;;;4899951;29;20059;-94
2021/03/02 05:09:38;;;;;;;117.10;45.58;;;;;;;;;;4897382;29;20055;-92
2021/03/02 05:12:10;;;;;;;116.47;48.03;;;;;;;;;;4845768;29;20051;-93
2021/03/02 05:14:45;;;;;;;107.82;47.60;;;;;;;;;;4874868;29;20061;-93
2021/03/02 05:17:14;;;;;;;120.18;51.13;;;;;;;;;;4866207;29;20052;-93
2021/03/02 05:19:43;;;;;;;124.63;57.55;;;;;;;;;;4876476;29;20056;-93
2021/03/02 05:22:26;;;;;;;120.53;48.70;;;;;;;;;;4878119;29;20048;-91
2021/03/02 05:25:02;;;;;;;106.40;50.47;;;;;;;;;;4856681;29;20088;-93
2021/03/02 05:27:30;;;;;;;115.43;53.28;;;;;;;;;;4888283;29;20064;-91
2021/03/02 05:30:10;;;;;;;117.65;54.60;;;;;;;;;;4882502;29;20080;-92
2021/03/02 05:32:39;;;;;;;122.97;50.33;;;;;;;;;;4871072;29;20074;-92
2021/03/02 05:35:15;;;;;;;122.45;53.38;;;;;;;;;;4876796;29;20052;-92
2021/03/02 05:37:45;;;;;;;123.97;53.55;;;;;;;;;;4891954;29;20386;-93
2021/03/02 05:40:14;;;;;;;133.73;50.85;;;;;;;;;;4900146;29;20050;-92
2021/03/02 05:42:44;;;;;;;127.00;51.35;;;;;;;;;;4872598;29;20068;-92
2021/03/02 05:45:26;;;;;;;122.38;50.30;;;;;;;;;;4877733;29;20048;-93
2021/03/02 05:48:11;;;;;;;108.55;50.05;;;;;;;;;;4913913;29;20064;-91
2021/03/02 05:50:54;;;;;;;118.13;51.35;;;;;;;;;;4909086;29;20066;-93
2021/03/02 05:53:27;;;;;;;112.53;50.72;;;;;;;;;;4881719;29;20062;-93
2021/03/02 05:56:11;;;;;;;114.47;53.70;;;;;;;;;;4887643;29;20058;-92
2021/03/02 05:58:53;;;;;;;116.75;51.80;;;;;;;;;;4911498;29;20048;-92
2021/03/02 06:01:39;;;;;;;115.78;51.97;;;;;;;;;;4869232;29;20076;-92
2021/03/02 06:04:16;;;;;;;111.57;52.17;;;;;;;;;;4897487;29;20070;-93
2021/03/02 06:07:01;;;;;;;125.20;48.70;;;;;;;;;;4884928;29;20075;-94
2021/03/02 06:09:36;;;;;;;123.65;59.05;;;;;;;;;;4898035;29;20084;-93
2021/03/02 06:12:20;;;;;;;118.60;52.60;;;;;;;;;;4927937;29;20055;-93
2021/03/02 06:15:03;;;;;;;124.57;57.05;;;5.90;99.90;;;;;;4893444;29;20509;-92
2021/03/02 06:17:47;;;;;;;132.25;56.50;;;;;;;;;;4901143;29;20066;-92
2021/03/02 06:20:30;;;;;;;114.25;53.47;;;;;;;;;;4920515;29;20060;-92
2021/03/02 06:23:00;;;;;;;118.85;52.00;;;;;;;;;;4908589;29;20043;-92
2021/03/02 06:25:34;;;;;;;114.78;53.22;;;;;;;;;;4915621;29;20052;-91
2021/03/02 06:28:36;;;;;;;103.82;51.70;;;5.90;99.90;;;;;;4888199;29;20051;-91
2021/03/02 06:31:35;;;;;;;111.70;46.38;;;;;;;;;;4903373;29;20058;-92
2021/03/02 06:34:21;;;;;;;125.38;47.25;;;;;;;;;;4881510;29;20048;-93
2021/03/02 06:37:06;;;;;;;116.60;47.30;;;;;;;;;;4881746;29;20045;-93
2021/03/02 06:39:48;;;;;;;115.63;51.50;;;;;;;;;;4875290;29;20049;-93
2021/03/02 06:42:26;;;;;;;109.57;50.50;;;;;;;;;;4896628;29;20122;-91
2021/03/02 06:45:15;;;;;;;105.30;53.38;;;5.80;99.90;;;;;;4878084;29;20055;-92
2021/03/02 06:47:52;;;;;;;125.40;55.67;;;;;;;;;;4896581;29;20047;-93
2021/03/02 06:50:50;;;;;;;131.57;55.28;;;;;;;;;;4887291;29;20048;-93
2021/03/02 06:53:26;;;;;;;134.05;54.97;;;;;;;;;;4884152;29;20400;-92
2021/03/02 06:56:12;;;;;;;109.35;55.00;;;;;;;;;;4862321;29;20057;-93
2021/03/02 06:59:14;;;;;;;139.55;56.20;;;5.80;99.90;;;;;;4875438;29;20049;-93
2021/03/02 07:01:50;;;;;;;104.88;52.85;;;;;;;;;;4861630;29;20444;-93
2021/03/02 07:04:22;;;;;;;121.03;56.03;;;;;;;;;;4859672;29;20057;-93
2021/03/02 07:07:14;;;;;;;109.45;47.38;;;5.80;99.90;;;;;;4884806;29;20059;-92
2021/03/02 07:09:47;;;;;;;102.05;48.50;;;;;;;;;;4882213;29;20069;-91
2021/03/02 07:12:19;;;;;;;99.15;48.80;;;;;;;;;;4859327;29;20049;-92
2021/03/02 07:14:47;;;;;;;104.13;49.35;;;;;;;;;;4871693;29;20053;-93
2021/03/02 07:17:37;;;;;;;95.40;43.70;;;;;;;;;;4854852;29;20049;-93
2021/03/02 07:20:10;;;;;;;101.72;48.45;;;;;;;;;;4858171;29;20067;-92
2021/03/02 07:22:40;;;;;;;101.35;49.85;;;;;;;;;;4862837;29;20052;-94
2021/03/02 07:25:10;;;;;;;109.97;53.70;;;;;;;;;;4863717;29;20055;-92
2021/03/02 07:27:43;;;;;;;118.70;54.53;;;5.80;99.90;;;;;;4876095;29;20062;-94
2021/03/02 07:30:13;;;;;;;117.78;49.88;;;;;;;;;;4855846;29;20044;-93
2021/03/02 07:32:48;;;;;;;122.43;50.25;;;5.80;99.90;;;;;;4896881;24;20053;-91
2021/03/02 07:35:29;;;;;;;124.22;52.75;;;;;;;;;;4935520;29;20228;-93
2021/03/02 07:38:17;;;;;;;113.13;53.07;;;;;;;;;;4899720;29;20051;-92
2021/03/02 07:40:52;;;;;;;110.25;48.17;;;;;;;;;;4922185;29;20055;-93
2021/03/02 07:43:54;;;;;;;97.32;48.92;;;5.90;99.90;;;;;;4928979;29;20066;-93
2021/03/02 07:46:40;;;;;;;128.00;52.20;;;;;;;;;;4942409;29;20048;-91
2021/03/02 07:49:24;;;;;;;105.78;51.67;;;;;;;;;;4912168;29;20060;-93
2021/03/02 07:51:57;;;;;;;97.13;45.17;;;;;;;;;;4921925;29;20051;-91
2021/03/02 07:54:25;;;;;;;120.93;50.70;;;;;;;;;;4900455;29;20059;-92
2021/03/02 07:57:16;;;;;;;111.90;48.45;;;5.80;99.90;;;;;;4947116;29;20059;-92
2021/03/02 07:59:48;;;;;;;112.43;44.63;;;;;;;;;;4931435;29;20076;-92
2021/03/02 08:02:31;;;;;;;107.50;50.28;;;;;;;;;;4936344;29;20058;-93
2021/03/02 08:05:22;;;;;;;106.00;51.63;;;;;;;;;;4922178;29;20082;-92
2021/03/02 08:08:23;;;;;;;111.35;54.25;;;;;;;;;;4931157;29;20047;-93
2021/03/02 08:11:40;;;;;;;96.03;46.45;;;5.90;99.90;;;;;;4900948;29;20052;-92
2021/03/02 08:14:33;;;;;;;94.30;42.10;;;;;;;;;;4961985;23;20052;-92
2021/03/02 08:17:25;;;;;;;104.47;42.38;;;;;;;;;;4929578;29;20043;-91
2021/03/02 08:20:06;;;;;;;109.03;46.22;;;;;;;;;;4934028;29;20059;-90
2021/03/02 08:22:45;;;;;;;102.30;46.47;;;;;;;;;;4914729;29;20163;-92
2021/03/02 08:25:27;;;;;;;94.47;46.22;;;;;;;;;;4917857;29;20048;-92
2021/03/02 08:28:17;;;;;;;120.70;46.55;;;;;;;;;;4900994;29;20046;-92
2021/03/02 08:34:14;;;;;;;103.90;44.40;;;;;;;;;;5015988;23;20059;-92
2021/03/02 08:37:01;;;;;;;91.95;41.92;;;;;;;;;;4956569;29;20077;-92
2021/03/02 08:39:52;;;;;;;95.43;41.35;;;;;;;;;;4963192;28;20051;-92
2021/03/02 08:42:27;;;;;;;89.10;39.03;;;;;;;;;;4971774;28;20051;-94
2021/03/02 08:45:36;;;;;;;90.20;42.00;;;;;;;;;;4988178;23;20377;-94
2021/03/02 08:48:32;;;;;;;86.78;41.25;;;;;;;;;;4935370;23;20058;-92
2021/03/02 08:51:20;;;;;;;86.68;41.85;;;;;;;;;;4952529;29;20052;-93
2021/03/02 08:54:17;;;;;;;90.65;43.70;;;;;;;;;;4919115;29;20047;-93
2021/03/02 08:57:08;;;;;;;89.07;43.90;;;;;;;;;;4979669;23;20058;-92
2021/03/02 09:00:21;;;;;;;96.13;50.55;;;5.90;99.90;;;;;;4934901;29;20055;-93
2021/03/02 09:03:07;;;;;;;94.57;42.35;;;;;;;;;;4921575;29;20059;-92
2021/03/02 09:05:46;;;;;;;79.22;41.15;;;;;;;;;;4966472;29;20055;-92
2021/03/02 09:08:45;;;;;;;80.40;36.17;;;;;;;;;;4938848;29;20054;-93
2021/03/02 09:11:19;;;;;;;88.63;37.97;;;;;;;;;;4976686;23;20059;-91
2021/03/02 09:14:08;;;;;;;87.05;40.83;;;;;;;;;;4940829;29;20047;-92
2021/03/02 09:16:48;;;;;;;96.32;43.67;;;;;;;;;;4956331;29;20058;-92
2021/03/02 09:19:52;;;;;;;84.22;41.50;;;;;;;;;;4950346;29;20051;-92
2021/03/02 09:26:06;;;;;;;69.88;37.85;;;6.10;99.90;;;;;;1270529;26;20791;-91
2021/03/02 09:28:42;;;;;;;78.18;34.83;;;;;;;;;;4919695;29;20066;-91
2021/03/02 09:31:31;;;;;;;85.10;38.10;;;6.10;99.90;;;;;;4956729;29;20061;-91
2021/03/02 09:34:04;;;;;;;88.55;44.70;;;;;;;;;;4940599;28;20055;-93
2021/03/02 09:36:53;;;;;;;79.80;37.53;;;;;;;;;;4969060;28;20046;-92
2021/03/02 09:39:33;;;;;;;90.47;40.08;;;;;;;;;;4951293;28;20065;-92
2021/03/02 09:42:53;;;;;;;71.75;36.65;;;6.30;99.90;;;;;;4957780;28;20061;-93
2021/03/02 09:45:34;;;;;;;91.93;42.25;;;;;;;;;;4935166;28;20050;-91
2021/03/02 09:48:30;;;;;;;88.10;39.90;;;;;;;;;;4961630;28;20061;-91
2021/03/02 09:51:28;;;;;;;80.05;43.88;;;;;;;;;;4933832;28;20061;-93
2021/03/02 09:54:10;;;;;;;85.13;42.53;;;;;;;;;;4929907;28;20524;-92
2021/03/02 09:56:45;;;;;;;77.32;39.47;;;;;;;;;;4972155;28;20506;-93
2021/03/02 10:03:46;;;;;;;77.95;39.90;;;6.40;99.90;;;;;;4964977;28;20502;-91
2021/03/02 10:06:39;;;;;;;82.78;34.55;;;6.40;99.90;;;;;;4947438;29;20047;-91
2021/03/02 10:09:49;;;;;;;77.10;37.38;;;6.30;99.90;;;;;;4929760;28;20060;-92
2021/03/02 10:13:25;;;;;;;75.60;38.63;;;;;;;;;;5016424;23;20043;-93
2021/03/02 10:16:42;;;;;;;76.70;37.35;;;;;;;;;;4975362;28;20055;-93
2021/03/02 10:19:35;;;;;;;83.13;40.60;;;;;;;;;;4955500;28;20069;-92
2021/03/02 10:25:39;;;;;;;68.30;36.47;;;;;;;;;;4967950;29;20047;-92
2021/03/02 10:28:16;;;;;;;75.93;39.92;;;;;;;;;;4967094;29;20054;-91
2021/03/02 10:30:52;;;;;;;93.35;46.78;;;;;;;;;;4958586;29;20050;-91
2021/03/02 10:33:31;;;;;;;79.93;42.78;;;;;;;;;;4922449;29;20044;-92
2021/03/02 10:36:03;;;;;;;77.57;41.90;;;;;;;;;;4929116;29;20431;-90
2021/03/02 10:38:43;;;;;;;66.75;32.35;;;;;;;;;;4937945;29;20079;-93
2021/03/02 10:41:14;;;;;;;73.72;36.47;;;;;;;;;;4933571;29;20504;-93
2021/03/02 10:46:51;;;;;;;84.30;42.58;;;;;;;;;;4933362;29;20056;-93
2021/03/02 10:49:32;;;;;;;86.13;43.88;;;;;;;;;;4931983;29;20059;-95
2021/03/02 10:52:12;;;;;;;74.65;36.47;;;;;;;;;;4920282;29;20043;-94
2021/03/02 10:55:11;;;;;;;67.00;37.70;;;;;;;;;;4975980;23;20047;-92
2021/03/02 10:57:53;;;;;;;65.57;31.17;;;;;;;;;;4956236;28;20057;-92
2021/03/02 11:00:31;;;;;;;62.42;29.17;;;;;;;;;;4984695;28;20472;-94
2021/03/02 11:03:07;;;;;;;67.13;29.95;;;6.60;99.90;;;;;;4923676;28;20047;-92
2021/03/02 11:05:40;;;;;;;64.18;31.48;;;;;;;;;;4938618;28;20043;-94
2021/03/02 11:08:17;;;;;;;75.07;33.22;;;;;;;;;;4951789;29;20043;-92
2021/03/02 11:10:53;;;;;;;59.28;31.67;;;6.80;99.90;;;;;;4936082;28;20500;-92
2021/03/02 11:13:28;;;;;;;62.67;32.05;;;6.80;99.90;;;;;;4920296;29;20055;-92
2021/03/02 11:16:15;;;;;;;62.20;29.92;;;;;;;;;;4936312;28;20039;-91
2021/03/02 11:18:48;;;;;;;59.97;30.05;;;;;;;;;;4961924;28;20061;-92
2021/03/02 11:21:19;;;;;;;62.70;30.15;;;;;;;;;;4935006;28;20044;-90
2021/03/02 11:23:53;;;;;;;58.85;31.27;;;;;;;;;;4936115;28;20057;-92
2021/03/02 11:26:27;;;;;;;61.13;33.20;;;;;;;;;;4965651;28;20058;-94
2021/03/02 11:28:58;;;;;;;;;;;7.00;99.90;;;;;;4961817;29;20055;-94
2021/03/02 11:31:45;;;;;;;66.38;33.28;;;;;;;;;;4968374;28;19923;-93
2021/03/02 11:34:30;;;;;;;67.82;33.25;;;;;;;;;;4949417;28;20035;-92
2021/03/02 11:37:01;;;;;;;70.10;37.90;;;;;;;;;;4942082;28;20085;-93
2021/03/02 11:39:30;;;;;;;67.32;36.58;;;;;;;;;;4950407;28;20038;-93
2021/03/02 11:42:27;;;;;;;84.85;40.78;;;7.20;99.90;;;;;;4939513;28;20047;-93
2021/03/02 11:45:29;;;;;;;74.78;37.35;;;;;;;;;;4958664;29;20065;-94
2021/03/02 11:48:15;;;;;;;71.93;33.78;;;;;;;;;;4952464;28;20038;-93
2021/03/02 11:51:01;;;;;;;71.38;36.88;;;;;;;;;;4949879;28;20045;-91
2021/03/02 11:53:36;;;;;;;76.57;37.22;;;;;;;;;;4933151;28;20055;-93
2021/03/02 11:56:16;;;;;;;62.60;35.70;;;;;;;;;;4948181;29;20519;-91
2021/03/02 11:58:47;;;;;;;85.20;41.60;;;;;;;;;;4945475;29;20055;-92
2021/03/02 12:01:17;;;;;;;71.32;42.40;;;;;;;;;;4940598;28;20293;-90
2021/03/02 12:03:49;;;;;;;88.38;40.35;;;;;;;;;;4921981;29;20058;-92
2021/03/02 12:06:19;;;;;;;78.32;38.35;;;;;;;;;;4943240;28;20043;-92
2021/03/02 12:09:04;;;;;;;76.75;39.85;;;;;;;;;;4947548;28;20039;-93
2021/03/02 12:11:39;;;;;;;72.47;35.15;;;;;;;;;;4936225;28;20047;-91
2021/03/02 12:14:11;;;;;;;72.88;37.45;;;;;;;;;;4967580;28;20065;-91
2021/03/02 12:16:42;;;;;;;76.97;39.40;;;;;;;;;;4933107;29;20055;-93
2021/03/02 12:19:21;;;;;;;73.20;40.33;;;;;;;;;;4908219;23;20045;-95
2021/03/02 12:22:27;;;;;;;78.60;37.22;;;;;;;;;;4890896;29;20048;-92
2021/03/02 12:25:19;;;;;;;75.82;43.08;;;;;;;;;;4894941;29;20060;-92
2021/03/02 12:27:48;;;;;;;79.60;41.53;;;;;;;;;;4875029;29;20440;-92
2021/03/02 12:30:21;;;;;;;77.88;44.40;;;;;;;;;;4867091;29;20065;-93
2021/03/02 12:33:03;;;;;;;73.97;37.95;;;7.90;99.90;;;;;;4869524;29;20481;-92
2021/03/02 12:35:36;;;;;;;71.85;38.60;;;;;;;;;;4886400;29;20068;-94
2021/03/02 12:38:06;;;;;;;77.25;37.00;;;;;;;;;;4867362;29;20068;-93
2021/03/02 12:40:36;;;;;;;69.40;36.88;;;;;;;;;;4873674;29;20052;-95
2021/03/02 12:43:04;;;;;;;72.20;35.72;;;;;;;;;;4913213;29;20058;-93
2021/03/02 12:45:41;;;;;;;65.18;35.90;;;;;;;;;;4899966;29;20053;-94
2021/03/02 12:48:33;;;;;;;75.53;37.88;;;;;;;;;;4890990;29;20056;-93
2021/03/02 12:51:05;;;;;;;72.65;38.53;;;;;;;;;;4890500;29;20071;-93
2021/03/02 12:53:44;;;;;;;83.88;39.92;;;;;;;;;;4899508;29;20079;-92
2021/03/02 12:56:14;;;;;;;81.45;40.85;;;;;;;;;;4879499;29;20068;-91
2021/03/02 12:58:45;;;;;;;84.78;37.17;;;;;;;;;;4896384;29;20060;-91
2021/03/02 13:01:14;;;;;;;79.32;39.08;;;;;;;;;;4903868;29;20052;-94
2021/03/02 13:03:56;;;;;;;78.47;38.15;;;;;;;;;;4882860;29;20060;-94
2021/03/02 13:06:26;;;;;;;70.18;38.85;;;;;;;;;;4873229;29;20052;-92
2021/03/02 13:08:56;;;;;;;73.45;36.17;;;8.60;99.90;;;;;;4873208;29;20072;-91
2021/03/02 13:11:28;;;;;;;91.22;40.60;;;;;;;;;;4875523;29;20068;-91
2021/03/02 13:13:59;;;;;;;84.15;40.78;;;;;;;;;;4874883;29;20053;-91
2021/03/02 13:17:19;;;;;;;66.55;35.85;;;8.90;99.90;;;;;;4876436;29;20056;-91
2021/03/02 13:19:50;;;;;;;76.15;35.55;;;;;;;;;;4890336;29;20052;-92
2021/03/02 13:22:24;;;;;;;70.73;34.37;;;8.90;99.90;;;;;;4883415;29;20639;-93
2021/03/02 13:24:54;;;;;;;75.18;34.92;;;;;;;;;;4863410;29;20307;-92
2021/03/02 13:27:27;;;;;;;70.57;35.05;;;;;;;;;;4879065;29;20056;-94
2021/03/02 13:30:31;;;;;;;80.22;38.47;;;;;;;;;;4887051;29;20056;-95
2021/03/02 13:33:10;;;;;;;87.97;42.90;;;;;;;;;;4889656;29;20052;-95
2021/03/02 13:35:51;;;;;;;69.88;35.92;;;;;;;;;;4878694;29;20058;-92
2021/03/02 13:38:25;;;;;;;78.13;40.17;;;;;;;;;;4869736;29;20049;-92
2021/03/02 13:40:56;;;;;;;74.45;38.33;;;;;;;;;;4888091;29;20059;-92
2021/03/02 13:43:28;;;;;;;89.57;40.83;;;;;;;;;;4881530;29;20057;-93
2021/03/02 13:49:13;;;;;;;87.38;41.25;;;;;;;;;;4880143;29;20041;-94
2021/03/02 13:52:12;;;;;;;67.30;37.70;;;9.60;99.90;;;;;;4900932;29;20060;-92
2021/03/02 13:54:45;;;;;;;75.93;38.25;;;;;;;;;;4859456;29;20512;-91
2021/03/02 13:57:17;;;;;;;70.25;33.70;;;;;;;;;;4872687;29;20052;-93
2021/03/02 13:59:49;;;;;;;69.03;36.33;;;;;;;;;;4874811;29;20057;-96
2021/03/02 14:02:25;;;;;;;68.18;37.40;;;;;;;;;;4897001;29;20043;-93
2021/03/02 14:04:57;;;;;;;78.10;38.30;;;;;;;;;;4879610;29;20048;-92
2021/03/02 14:07:30;;;;;;;70.60;34.20;;;;;;;;;;4874141;29;20043;-91
2021/03/02 14:10:08;;;;;;;69.88;36.65;;;10.10;99.90;;;;;;4851989;29;20057;-93
2021/03/02 14:12:41;;;;;;;79.85;38.42;;;;;;;;;;4903296;29;20057;-92
2021/03/02 14:15:36;;;;;;;58.38;35.92;;;9.90;99.90;;;;;;4891728;29;20063;-93
2021/03/02 14:18:39;;;;;;;72.03;36.30;;;;;;;;;;4889960;29;20071;-91
2021/03/02 14:21:35;;;;;;;69.82;37.90;;;9.90;99.90;;;;;;4889460;29;20056;-92
2021/03/02 14:24:08;;;;;;;79.47;41.60;;;10.00;99.90;;;;;;4877622;29;20061;-92
2021/03/02 14:26:38;;;;;;;83.28;42.35;;;;;;;;;;4861392;29;20241;-92
2021/03/02 14:29:09;;;;;;;76.80;42.27;;;;;;;;;;4863152;29;20060;-90
2021/03/02 14:31:40;;;;;;;79.45;40.83;;;;;;;;;;4869201;29;20053;-92
2021/03/02 14:34:11;;;;;;;73.35;37.80;;;;;;;;;;4873602;29;20057;-92
2021/03/02 14:36:43;;;;;;;72.85;36.42;;;;;;;;;;4873490;29;20535;-92
2021/03/02 14:39:12;;;;;;;71.78;36.88;;;;;;;;;;4861814;29;20049;-91
2021/03/02 14:41:44;;;;;;;84.93;41.90;;;;;;;;;;4898539;29;20396;-93
2021/03/02 14:44:16;;;;;;;78.90;38.60;;;;;;;;;;4867913;29;20068;-92
2021/03/02 14:47:08;;;;;;;74.18;40.58;;;10.60;99.90;;;;;;4859279;29;20064;-90
2021/03/02 14:49:46;;;;;;;85.00;42.72;;;10.80;99.90;;;;;;4886356;29;20065;-92
2021/03/02 14:52:18;;;;;;;75.80;37.00;;;;;;;;;;4858726;29;20453;-92
2021/03/02 14:54:50;;;;;;;69.65;35.03;;;;;;;;;;4865340;29;20053;-93
2021/03/02 14:57:21;;;;;;;84.50;38.08;;;;;;;;;;4874390;29;20064;-92
2021/03/02 14:59:50;;;;;;;72.30;38.90;;;;;;;;;;4872642;29;20783;-90
2021/03/02 15:02:45;;;;;;;74.35;42.85;;;;;;;;;;4868686;29;20047;-92
2021/03/02 15:05:28;;;;;;;74.68;37.60;;;;;;;;;;4875553;29;20053;-94
2021/03/02 15:07:57;;;;;;;66.43;37.67;;;;;;;;;;4862396;29;20064;-93
2021/03/02 15:10:25;;;;;;;79.88;34.55;;;;;;;;;;4872717;29;20056;-93
2021/03/02 15:12:57;;;;;;;66.15;38.85;;;12.30;99.90;;;;;;4864760;29;20057;-92
2021/03/02 15:15:25;;;;;;;66.60;37.47;;;;;;;;;;4854296;29;20053;-93
2021/03/02 15:17:55;;;;;;;72.32;38.70;;;;;;;;;;4847974;29;20064;-92
2021/03/02 15:20:24;;;;;;;67.32;35.40;;;;;;;;;;4875154;29;20152;-94
2021/03/02 15:22:52;;;;;;;66.00;34.10;;;;;;;;;;4881454;29;20052;-92
2021/03/02 15:25:22;;;;;;;63.67;35.90;;;12.60;99.90;;;;;;4871043;29;20053;-95
2021/03/02 15:27:52;;;;;;;66.07;33.10;;;;;;;;;;4862115;29;20065;-94
2021/03/02 15:30:24;;;;;;;59.40;35.85;;;;;;;;;;4852643;29;20050;-94
2021/03/02 15:32:54;;;;;;;66.63;33.63;;;13.20;99.90;;;;;;4878904;29;20056;-93